Strona główna
METAR-TAF:

METAR-TAF

Lotnisko :

Lechfeld, Niemcy

Szerokość geograficzna: 48-11N, Długość geograficzna: 010-52E, wysokość: 555 m

Aktualna obserwacja pogody

Raport powstał 19 minut temu, godzina 05:20 UTC
Wiatr 3 kt od południe
Temperatura 7°C
Wilgotność 70%
Ciśnienie 1023 hPa
Widzialność 10 km lub więcej
Przerywane chmury na wysokości 8000 ft

METAR: ETSL 090520Z 19003KT 9999 BKN080 07/02 Q1023 BLU

czas: 07:39 (05:39 UTC)

Prognoza

Raport powstał 9 godziny i 14 minut temu, godzina 20:25 UTC
Prognoza ważna od 08 godzina 20 UTC do 09 godzina 02 UTC
Wiatr 5 kt od południowo-południowy zachód
Widzialność: 2025 m
bezchmurnie

TAF: ETSL 082025Z 0820/0902 20005KT 9999 NSW SKC CANCEL 2025 BY ETGL

Obserwacja i prognoza pogody dla ponad 4000 lotnisk (raport METAR i TAF).

Dostępne stacje oznaczono żółtymi i czerwonymi punktami na mapie.

Najedź kursorem aby zobaczyć nazwę stacji.

Kliknij aby zobaczyć obserwacje i prognozy pogody.

Aby zmienić mapę: kliknij na zielony przycisk z czarnym krzyżykiem, aby powiększyć; na zielony przycisk z myślnikiem, aby pomniejszyć; na zielone strzałki, aby przejść do map sąsiednich.


METAR-TAF: